createdAt,value
2023-02-19T00:00:25.247Z,45.10
2023-02-19T00:02:30.095Z,45.30
2023-02-19T00:04:34.349Z,45.10
2023-02-19T00:06:36.972Z,45.10
2023-02-19T00:08:39.743Z,45.30
2023-02-19T00:10:41.471Z,45.30
2023-02-19T00:12:43.146Z,45.10
2023-02-19T00:14:44.825Z,45.00
2023-02-19T00:16:47.132Z,45.00
2023-02-19T00:18:49.458Z,45.00
2023-02-19T00:20:51.228Z,45.10
2023-02-19T00:22:52.947Z,44.90
2023-02-19T00:24:54.616Z,44.90
2023-02-19T00:26:56.254Z,44.80
2023-02-19T00:28:58.529Z,44.80
2023-02-19T00:31:20.994Z,44.70
2023-02-19T00:33:23.059Z,44.90
2023-02-19T00:35:27.260Z,45.00
2023-02-19T00:37:28.936Z,45.00
2023-02-19T00:39:30.669Z,44.80
2023-02-19T00:41:33.302Z,45.10
2023-02-19T00:43:34.957Z,45.10
2023-02-19T00:45:36.778Z,45.10
2023-02-19T00:47:38.471Z,45.40
2023-02-19T00:49:44.002Z,45.30
2023-02-19T00:51:46.397Z,45.40
2023-02-19T00:53:48.932Z,45.80
2023-02-19T00:55:53.240Z,45.60
2023-02-19T00:57:54.947Z,46.20
2023-02-19T00:59:56.782Z,46.20
2023-02-19T01:01:58.584Z,45.90
2023-02-19T01:04:01.097Z,46.00
2023-02-19T01:06:04.179Z,46.00
2023-02-19T01:08:08.386Z,46.20
2023-02-19T01:10:10.333Z,46.30
2023-02-19T01:12:12.200Z,46.20
2023-02-19T01:14:13.985Z,46.00
2023-02-19T01:16:24.671Z,46.20
2023-02-19T01:18:26.399Z,46.20
2023-02-19T01:20:28.278Z,46.50
2023-02-19T01:22:30.025Z,46.80
2023-02-19T01:24:32.100Z,46.70
2023-02-19T01:26:33.870Z,46.70
2023-02-19T01:28:37.228Z,47.00
2023-02-19T01:30:39.394Z,47.00
2023-02-19T01:32:41.193Z,46.90
2023-02-19T01:34:42.877Z,47.10
2023-02-19T01:36:44.576Z,47.50
2023-02-19T01:38:46.856Z,47.70
2023-02-19T01:40:59.108Z,47.80
2023-02-19T01:43:03.579Z,48.10
2023-02-19T01:45:29.122Z,48.50
2023-02-19T01:47:30.824Z,48.60
2023-02-19T01:49:37.064Z,48.70
2023-02-19T01:51:42.723Z,49.00
2023-02-19T01:53:48.736Z,48.80
2023-02-19T01:55:59.593Z,49.00
2023-02-19T01:58:03.350Z,49.00
2023-02-19T02:00:13.889Z,48.80
2023-02-19T02:02:16.138Z,49.00
2023-02-19T02:04:19.304Z,48.90
2023-02-19T02:06:25.727Z,49.00
2023-02-19T02:08:48.579Z,49.00
2023-02-19T02:10:50.937Z,49.00
2023-02-19T02:12:57.235Z,48.90
2023-02-19T02:15:00.131Z,49.40
2023-02-19T02:17:17.159Z,49.40
2023-02-19T02:19:49.033Z,49.70
2023-02-19T02:22:00.277Z,49.70
2023-02-19T02:24:26.637Z,49.70
2023-02-19T02:27:02.279Z,50.00
2023-02-19T02:29:16.982Z,49.90
2023-02-19T02:31:26.803Z,49.80
2023-02-19T02:33:37.751Z,49.80
2023-02-19T02:35:53.159Z,50.10
2023-02-19T02:38:00.939Z,49.90
2023-02-19T02:40:07.249Z,50.00
2023-02-19T02:42:27.233Z,49.80
2023-02-19T02:45:04.751Z,49.80
2023-02-19T02:47:31.871Z,49.70
2023-02-19T02:49:54.501Z,49.70
2023-02-19T02:51:57.936Z,49.80
2023-02-19T02:54:38.019Z,49.60
2023-02-19T02:56:48.070Z,49.60
2023-02-19T02:58:52.515Z,49.60
2023-02-19T03:01:24.335Z,49.60
2023-02-19T03:03:28.711Z,50.00
2023-02-19T03:05:52.178Z,50.10
2023-02-19T03:08:10.810Z,49.70
2023-02-19T03:10:19.389Z,49.80
2023-02-19T03:12:41.077Z,49.80
2023-02-19T03:15:09.684Z,49.80
2023-02-19T03:17:43.482Z,49.60
2023-02-19T03:19:49.950Z,49.10
2023-02-19T03:22:00.384Z,49.10
2023-02-19T03:24:27.041Z,49.10
2023-02-19T03:26:29.702Z,49.10
2023-02-19T03:28:53.618Z,49.10
2023-02-19T03:30:55.838Z,49.10
2023-02-19T03:33:11.840Z,49.10
2023-02-19T03:35:23.651Z,49.10
2023-02-19T03:37:51.754Z,49.70
2023-02-19T03:39:56.424Z,49.10
2023-02-19T03:42:05.855Z,49.10
2023-02-19T03:44:42.722Z,49.10
2023-02-19T03:46:44.515Z,49.20
2023-02-19T03:49:02.801Z,49.10
2023-02-19T03:51:35.158Z,49.20
2023-02-19T03:53:55.586Z,49.20
2023-02-19T03:56:09.969Z,49.20
2023-02-19T03:58:21.888Z,49.20
2023-02-19T04:00:37.790Z,49.20
2023-02-19T04:02:54.046Z,49.20
2023-02-19T04:05:03.987Z,49.30
2023-02-19T04:07:06.376Z,49.20
2023-02-19T04:09:16.217Z,49.00
2023-02-19T04:11:23.903Z,48.60
2023-02-19T04:13:53.258Z,48.60
2023-02-19T04:16:02.568Z,48.70
2023-02-19T04:18:15.575Z,48.40
2023-02-19T04:20:20.036Z,48.40
2023-02-19T04:22:22.742Z,48.20
2023-02-19T04:24:33.217Z,47.90
2023-02-19T04:26:35.836Z,47.70
2023-02-19T04:28:38.889Z,47.70
2023-02-19T04:30:40.669Z,47.40
2023-02-19T04:32:42.465Z,47.30
2023-02-19T04:34:44.093Z,47.20
2023-02-19T04:36:45.774Z,47.00
2023-02-19T04:38:47.420Z,46.90
2023-02-19T04:40:51.404Z,46.60
2023-02-19T04:42:53.190Z,46.40
2023-02-19T04:44:56.046Z,46.10
2023-02-19T04:46:57.737Z,46.20
2023-02-19T04:48:59.408Z,45.80
2023-02-19T04:51:06.726Z,45.60
2023-02-19T04:53:08.621Z,45.70
2023-02-19T04:55:10.413Z,45.60
2023-02-19T04:57:14.589Z,45.50
2023-02-19T04:59:16.830Z,45.50
2023-02-19T05:01:18.567Z,45.40
2023-02-19T05:03:20.383Z,45.30
2023-02-19T05:05:22.048Z,45.10
2023-02-19T05:07:26.701Z,45.00
2023-02-19T05:09:28.367Z,44.70
2023-02-19T05:11:30.004Z,44.60
2023-02-19T05:13:32.054Z,44.60
2023-02-19T05:15:36.241Z,44.60
2023-02-19T05:17:37.978Z,44.40
2023-02-19T05:19:43.294Z,44.00
2023-02-19T05:21:44.915Z,43.70
2023-02-19T05:23:46.581Z,43.40
2023-02-19T05:25:52.294Z,43.20
2023-02-19T05:28:13.980Z,43.10
2023-02-19T05:30:15.762Z,43.10
2023-02-19T05:32:17.564Z,42.90
2023-02-19T05:34:19.307Z,42.70
2023-02-19T05:36:24.277Z,42.70
2023-02-19T05:38:26.053Z,42.50
2023-02-19T05:40:30.792Z,42.30
2023-02-19T05:42:32.470Z,42.30
2023-02-19T05:44:34.142Z,42.20
2023-02-19T05:46:35.932Z,42.30
2023-02-19T05:48:37.670Z,42.30
2023-02-19T05:50:39.981Z,42.20
2023-02-19T05:52:49.176Z,42.20
2023-02-19T05:54:50.842Z,42.30
2023-02-19T05:56:56.753Z,42.40
2023-02-19T05:58:59.920Z,42.30
2023-02-19T06:01:01.696Z,42.20
2023-02-19T06:03:03.485Z,42.10
2023-02-19T06:05:09.205Z,42.00
2023-02-19T06:07:10.868Z,41.60
2023-02-19T06:09:12.851Z,41.50
2023-02-19T06:11:18.567Z,41.60
2023-02-19T06:13:20.230Z,41.60
2023-02-19T06:15:22.092Z,41.60
2023-02-19T06:17:28.308Z,41.50
2023-02-19T06:19:29.923Z,41.40
2023-02-19T06:21:31.721Z,41.60
2023-02-19T06:23:33.516Z,41.50
2023-02-19T06:25:35.168Z,41.40
2023-02-19T06:27:36.857Z,41.40
2023-02-19T06:29:38.542Z,41.30
2023-02-19T06:31:43.089Z,41.30
2023-02-19T06:33:44.978Z,41.40
2023-02-19T06:35:48.827Z,41.30
2023-02-19T06:37:53.048Z,41.20
2023-02-19T06:39:57.016Z,41.30
2023-02-19T06:41:58.892Z,41.10
2023-02-19T06:44:00.651Z,41.10
2023-02-19T06:46:06.249Z,41.00
2023-02-19T06:48:08.051Z,41.10
2023-02-19T06:50:09.712Z,41.20
2023-02-19T06:52:11.414Z,41.10
2023-02-19T06:54:13.131Z,41.10
2023-02-19T06:56:27.463Z,41.10
2023-02-19T06:58:29.875Z,41.10
2023-02-19T07:00:34.999Z,40.90
2023-02-19T07:02:36.654Z,40.90
2023-02-19T07:04:38.572Z,41.00
2023-02-19T07:06:44.252Z,41.00
2023-02-19T07:08:45.953Z,41.00
2023-02-19T07:10:58.200Z,40.90
2023-02-19T07:12:59.903Z,40.70
2023-02-19T07:15:04.075Z,40.60
2023-02-19T07:17:05.778Z,40.60
2023-02-19T07:19:07.452Z,40.40
2023-02-19T07:21:16.000Z,40.50
2023-02-19T07:23:17.650Z,40.60
2023-02-19T07:25:19.427Z,40.60
2023-02-19T07:27:21.108Z,40.50
2023-02-19T07:29:22.859Z,40.50
2023-02-19T07:31:24.933Z,40.70
2023-02-19T07:33:26.841Z,40.60
2023-02-19T07:35:30.635Z,40.70
2023-02-19T07:37:32.275Z,40.50
2023-02-19T07:39:37.000Z,40.60
2023-02-19T07:41:40.314Z,40.70
2023-02-19T07:43:42.149Z,40.60
2023-02-19T07:45:44.134Z,40.50
2023-02-19T07:47:47.972Z,40.60
2023-02-19T07:49:52.252Z,40.60
2023-02-19T07:51:53.964Z,40.60
2023-02-19T07:53:55.759Z,40.60
2023-02-19T07:56:02.027Z,40.60
2023-02-19T07:58:06.119Z,40.80
2023-02-19T08:00:08.360Z,40.80
2023-02-19T08:02:37.639Z,40.80
2023-02-19T08:04:39.439Z,41.10
2023-02-19T08:06:43.605Z,41.00
2023-02-19T08:08:47.631Z,41.00
2023-02-19T08:11:08.184Z,41.20
2023-02-19T08:13:25.310Z,41.30
2023-02-19T08:15:29.228Z,41.30
2023-02-19T08:17:33.405Z,41.30
2023-02-19T08:19:35.192Z,41.30
2023-02-19T08:21:36.984Z,42.10
2023-02-19T08:23:39.325Z,41.30
2023-02-19T08:25:41.688Z,41.40
2023-02-19T08:27:43.395Z,41.50
2023-02-19T08:29:47.579Z,41.40
2023-02-19T08:31:49.517Z,41.70
2023-02-19T08:33:51.428Z,41.70
2023-02-19T08:35:53.115Z,41.80
2023-02-19T08:38:00.527Z,41.80
2023-02-19T08:40:07.432Z,41.90
2023-02-19T08:42:09.303Z,41.50
2023-02-19T08:44:11.003Z,41.40
2023-02-19T08:46:13.362Z,41.60
2023-02-19T08:48:17.178Z,41.70
2023-02-19T08:50:19.882Z,41.80
2023-02-19T08:52:21.629Z,41.80
2023-02-19T08:54:23.279Z,41.80
2023-02-19T08:56:25.258Z,42.00
2023-02-19T08:58:29.076Z,42.40
2023-02-19T09:00:30.847Z,42.30
2023-02-19T09:02:33.864Z,42.10
2023-02-19T09:04:37.699Z,42.10
2023-02-19T09:06:40.210Z,42.90
2023-02-19T09:08:41.964Z,42.20
2023-02-19T09:10:43.677Z,42.30
2023-02-19T09:12:45.406Z,42.10
2023-02-19T09:14:47.231Z,42.00
2023-02-19T09:16:51.562Z,41.80
2023-02-19T09:18:53.320Z,41.70
2023-02-19T09:20:57.636Z,41.60
2023-02-19T09:23:02.942Z,41.30
2023-02-19T09:25:05.025Z,41.20
2023-02-19T09:27:08.518Z,41.20
2023-02-19T09:29:10.218Z,41.30
2023-02-19T09:31:15.034Z,41.10
2023-02-19T09:33:17.003Z,41.10
2023-02-19T09:35:23.211Z,41.20
2023-02-19T09:37:29.601Z,41.30
2023-02-19T09:39:31.643Z,41.20
2023-02-19T09:41:50.538Z,41.00
2023-02-19T09:43:52.296Z,41.10
2023-02-19T09:46:03.428Z,41.20
2023-02-19T09:48:06.197Z,40.70
2023-02-19T09:50:12.629Z,40.70
2023-02-19T09:52:23.441Z,40.60
2023-02-19T09:54:30.178Z,40.20
2023-02-19T09:56:32.244Z,40.00
2023-02-19T09:58:36.096Z,39.80
2023-02-19T10:00:37.903Z,39.70
2023-02-19T10:02:39.659Z,39.50
2023-02-19T10:04:45.099Z,39.30
2023-02-19T10:06:47.545Z,39.20
2023-02-19T10:09:02.658Z,39.20
2023-02-19T10:11:06.124Z,39.30
2023-02-19T10:13:10.963Z,39.30
2023-02-19T10:15:19.716Z,39.20
2023-02-19T10:17:34.685Z,39.20
2023-02-19T10:19:39.310Z,39.40
2023-02-19T10:21:42.280Z,39.20
2023-02-19T10:23:44.585Z,39.20
2023-02-19T10:25:57.261Z,39.30
2023-02-19T10:28:00.364Z,39.30
2023-02-19T10:30:02.328Z,39.20
2023-02-19T10:32:23.683Z,39.20
2023-02-19T10:34:28.350Z,39.20
2023-02-19T10:36:33.371Z,39.20
2023-02-19T10:38:40.218Z,39.20
2023-02-19T10:40:47.909Z,39.30
2023-02-19T10:42:57.098Z,39.40
2023-02-19T10:45:01.954Z,39.30
2023-02-19T10:47:05.882Z,39.30
2023-02-19T10:49:30.340Z,39.20
2023-02-19T10:51:41.498Z,39.30
2023-02-19T10:53:46.507Z,38.70
2023-02-19T10:55:48.220Z,38.90
2023-02-19T10:57:50.515Z,38.10
2023-02-19T11:00:23.069Z,38.00
2023-02-19T11:02:26.687Z,37.20
2023-02-19T11:04:34.083Z,36.20
2023-02-19T11:06:36.110Z,36.30
2023-02-19T11:08:52.984Z,36.00
2023-02-19T11:10:55.123Z,36.00
2023-02-19T11:13:05.725Z,35.70
2023-02-19T11:15:27.291Z,35.60
2023-02-19T11:17:37.527Z,35.80
2023-02-19T11:19:48.525Z,35.30
2023-02-19T11:21:52.722Z,35.00
2023-02-19T11:23:56.472Z,35.10
2023-02-19T11:26:01.352Z,34.80
2023-02-19T11:28:21.822Z,34.10
2023-02-19T11:30:50.787Z,33.90
2023-02-19T11:32:52.567Z,33.50
2023-02-19T11:35:18.286Z,33.10
2023-02-19T11:37:21.544Z,33.30
2023-02-19T11:39:30.584Z,33.30
2023-02-19T11:41:37.929Z,33.20
2023-02-19T11:43:57.249Z,33.10
2023-02-19T11:46:28.561Z,32.50
2023-02-19T11:49:03.087Z,32.50
2023-02-19T11:51:10.898Z,32.60
2023-02-19T11:53:30.450Z,32.80
2023-02-19T11:56:05.278Z,32.70
2023-02-19T11:58:46.854Z,32.20
2023-02-19T12:01:14.233Z,32.00
2023-02-19T12:03:34.487Z,31.60
2023-02-19T12:05:42.066Z,31.40
2023-02-19T12:08:08.487Z,31.30
2023-02-19T12:10:51.558Z,30.90
2023-02-19T12:12:59.218Z,31.50
2023-02-19T12:15:32.538Z,31.50
2023-02-19T12:18:04.319Z,31.80
2023-02-19T12:20:21.120Z,31.70
2023-02-19T12:22:32.164Z,31.80
2023-02-19T12:25:06.393Z,31.70
2023-02-19T12:27:26.895Z,31.70
2023-02-19T12:29:31.537Z,31.80
2023-02-19T12:32:13.149Z,32.10
2023-02-19T12:34:51.945Z,32.40
2023-02-19T12:37:16.907Z,32.60
2023-02-19T12:39:55.182Z,32.80
2023-02-19T12:42:13.290Z,32.70
2023-02-19T12:44:22.855Z,32.30
2023-02-19T12:46:38.676Z,32.30
2023-02-19T12:48:42.464Z,32.30
2023-02-19T12:50:47.567Z,32.50
2023-02-19T12:52:57.735Z,32.40
2023-02-19T12:55:08.227Z,32.50
2023-02-19T12:57:22.586Z,32.30
2023-02-19T12:59:48.386Z,32.50
2023-02-19T13:01:58.256Z,32.60
2023-02-19T13:04:33.210Z,32.70
2023-02-19T13:06:44.355Z,32.90
2023-02-19T13:09:11.460Z,33.10
2023-02-19T13:11:36.645Z,33.10
2023-02-19T13:13:55.305Z,33.10
2023-02-19T13:16:03.035Z,33.10
2023-02-19T13:18:16.304Z,32.80
2023-02-19T13:20:48.655Z,33.00
2023-02-19T13:23:18.382Z,33.30
2023-02-19T13:25:24.895Z,33.00
2023-02-19T13:27:54.747Z,32.90
2023-02-19T13:30:18.255Z,33.10
2023-02-19T13:32:54.871Z,33.10
2023-02-19T13:35:17.769Z,33.20
2023-02-19T13:37:20.651Z,33.10
2023-02-19T13:39:23.188Z,33.00
2023-02-19T13:41:50.459Z,33.00
2023-02-19T13:43:59.317Z,33.20
2023-02-19T13:46:04.260Z,32.80
2023-02-19T13:48:32.518Z,32.50
2023-02-19T13:50:36.736Z,32.90
2023-02-19T13:52:39.619Z,32.60
2023-02-19T13:54:41.332Z,32.70
2023-02-19T13:56:43.097Z,32.90
2023-02-19T13:59:15.112Z,32.70
2023-02-19T14:01:18.392Z,32.50
2023-02-19T14:03:39.030Z,32.50
2023-02-19T14:05:59.120Z,32.20
2023-02-19T14:08:00.932Z,32.00
2023-02-19T14:10:05.680Z,32.60
2023-02-19T14:12:11.210Z,31.80
2023-02-19T14:14:36.082Z,32.10
2023-02-19T14:16:46.927Z,31.80
2023-02-19T14:18:50.415Z,31.70
2023-02-19T14:21:06.960Z,31.90
2023-02-19T14:23:16.212Z,31.70
2023-02-19T14:25:43.267Z,31.70
2023-02-19T14:27:45.325Z,31.60
2023-02-19T14:29:49.905Z,31.80
2023-02-19T14:31:54.451Z,31.80
2023-02-19T14:34:00.706Z,31.80
2023-02-19T14:36:10.466Z,31.50
2023-02-19T14:38:21.298Z,31.60
2023-02-19T14:40:43.228Z,31.60
2023-02-19T14:42:45.089Z,31.70
2023-02-19T14:44:52.174Z,31.70
2023-02-19T14:47:01.145Z,31.70
2023-02-19T14:49:21.619Z,31.70
2023-02-19T14:51:39.534Z,31.80
2023-02-19T14:53:44.159Z,31.70
2023-02-19T14:55:47.594Z,31.70
2023-02-19T14:57:52.209Z,31.90
2023-02-19T15:00:02.975Z,31.80
2023-02-19T15:02:16.675Z,32.00
2023-02-19T15:04:24.096Z,31.80
2023-02-19T15:06:26.928Z,31.90
2023-02-19T15:08:38.561Z,32.50
2023-02-19T15:10:49.495Z,31.60
2023-02-19T15:12:53.995Z,31.40
2023-02-19T15:14:59.751Z,31.30
2023-02-19T15:17:04.647Z,31.30
2023-02-19T15:19:08.911Z,31.20
2023-02-19T15:21:24.430Z,31.20
2023-02-19T15:23:30.328Z,31.10
2023-02-19T15:25:37.664Z,30.90
2023-02-19T15:27:39.407Z,30.80
2023-02-19T15:29:48.455Z,30.90
2023-02-19T15:31:51.768Z,30.60
2023-02-19T15:33:54.263Z,30.50
2023-02-19T15:36:02.635Z,30.60
2023-02-19T15:38:04.375Z,30.50
2023-02-19T15:40:09.574Z,30.70
2023-02-19T15:42:26.586Z,30.70
2023-02-19T15:44:53.258Z,30.70
2023-02-19T15:47:03.539Z,30.70
2023-02-19T15:49:33.085Z,30.90
2023-02-19T15:51:43.978Z,30.90
2023-02-19T15:53:50.250Z,31.10
2023-02-19T15:56:03.985Z,30.90
2023-02-19T15:58:25.023Z,30.80
2023-02-19T16:00:50.263Z,30.90
2023-02-19T16:02:52.112Z,30.80
2023-02-19T16:04:53.830Z,30.40
2023-02-19T16:07:01.531Z,30.50
2023-02-19T16:09:06.779Z,30.50
2023-02-19T16:11:23.873Z,30.40
2023-02-19T16:13:28.989Z,30.50
2023-02-19T16:15:35.681Z,30.00
2023-02-19T16:17:39.492Z,30.00
2023-02-19T16:19:54.013Z,29.90
2023-02-19T16:21:56.044Z,29.90
2023-02-19T16:24:16.477Z,29.50
2023-02-19T16:26:18.546Z,29.80
2023-02-19T16:28:26.196Z,29.40
2023-02-19T16:30:31.496Z,29.40
2023-02-19T16:32:33.245Z,29.40
2023-02-19T16:34:44.129Z,29.40
2023-02-19T16:36:48.284Z,29.40
2023-02-19T16:39:08.273Z,29.50
2023-02-19T16:41:16.345Z,29.90
2023-02-19T16:43:39.844Z,29.80
2023-02-19T16:45:42.686Z,30.00
2023-02-19T16:47:48.297Z,30.00
2023-02-19T16:49:50.263Z,30.20
2023-02-19T16:51:52.347Z,31.00
2023-02-19T16:53:54.050Z,30.40
2023-02-19T16:55:55.774Z,30.50
2023-02-19T16:57:57.528Z,30.50
2023-02-19T16:59:59.253Z,30.50
2023-02-19T17:02:07.605Z,30.70
2023-02-19T17:04:11.877Z,30.70
2023-02-19T17:06:14.175Z,30.50
2023-02-19T17:08:34.023Z,30.50
2023-02-19T17:10:38.085Z,30.70
2023-02-19T17:12:39.723Z,30.60
2023-02-19T17:14:41.724Z,30.60
2023-02-19T17:16:45.497Z,30.80
2023-02-19T17:18:47.267Z,30.70
2023-02-19T17:21:02.045Z,30.80
2023-02-19T17:23:03.824Z,30.90
2023-02-19T17:25:05.956Z,31.00
2023-02-19T17:27:12.155Z,31.00
2023-02-19T17:29:15.584Z,30.90
2023-02-19T17:31:18.012Z,30.90
2023-02-19T17:33:19.841Z,30.80
2023-02-19T17:35:22.039Z,31.00
2023-02-19T17:37:28.286Z,30.90
2023-02-19T17:39:32.577Z,30.70
2023-02-19T17:41:35.735Z,30.70
2023-02-19T17:43:37.380Z,30.80
2023-02-19T17:45:39.214Z,30.70
2023-02-19T17:47:41.129Z,30.60
2023-02-19T17:49:43.325Z,30.70
2023-02-19T17:51:46.374Z,30.70
2023-02-19T17:53:48.246Z,30.70
2023-02-19T17:55:50.044Z,30.70
2023-02-19T17:57:52.483Z,30.60
2023-02-19T17:59:54.203Z,30.70
2023-02-19T18:01:57.821Z,30.70
2023-02-19T18:03:59.576Z,30.60
2023-02-19T18:06:01.371Z,30.90
2023-02-19T18:08:03.130Z,30.70
2023-02-19T18:10:08.324Z,30.70
2023-02-19T18:12:10.138Z,30.50
2023-02-19T18:14:11.883Z,30.40
2023-02-19T18:16:15.680Z,30.40
2023-02-19T18:18:17.381Z,30.40
2023-02-19T18:20:26.770Z,30.30
2023-02-19T18:22:28.455Z,30.50
2023-02-19T18:24:30.308Z,30.40
2023-02-19T18:26:34.234Z,30.40
2023-02-19T18:28:38.216Z,30.50
2023-02-19T18:30:39.973Z,30.50
2023-02-19T18:32:41.653Z,30.50
2023-02-19T18:34:43.390Z,30.50
2023-02-19T18:36:49.440Z,30.60
2023-02-19T18:38:51.096Z,30.50
2023-02-19T18:40:54.000Z,30.60
2023-02-19T18:42:56.128Z,30.40
2023-02-19T18:44:58.001Z,30.40
2023-02-19T18:46:59.744Z,30.40
2023-02-19T18:49:01.400Z,30.50
2023-02-19T18:51:05.855Z,30.40
2023-02-19T18:53:07.639Z,30.50
2023-02-19T18:55:13.999Z,30.60
2023-02-19T18:57:15.807Z,31.30
2023-02-19T18:59:17.776Z,30.60
2023-02-19T19:01:19.820Z,30.80
2023-02-19T19:03:21.567Z,30.80
2023-02-19T19:05:25.810Z,30.80
2023-02-19T19:07:27.542Z,30.90
2023-02-19T19:09:29.470Z,30.90
2023-02-19T19:11:31.725Z,31.10
2023-02-19T19:13:33.654Z,31.10
2023-02-19T19:15:35.474Z,31.10
2023-02-19T19:17:37.198Z,31.10
2023-02-19T19:19:41.115Z,31.30
2023-02-19T19:21:42.901Z,31.20
2023-02-19T19:23:44.573Z,31.30
2023-02-19T19:25:47.454Z,32.10
2023-02-19T19:27:52.069Z,31.60
2023-02-19T19:29:53.949Z,31.60
2023-02-19T19:31:55.942Z,32.30
2023-02-19T19:33:57.659Z,31.80
2023-02-19T19:35:59.405Z,31.70
2023-02-19T19:38:01.150Z,31.70
2023-02-19T19:40:03.981Z,31.90
2023-02-19T19:42:09.675Z,32.00
2023-02-19T19:44:12.488Z,31.90
2023-02-19T19:46:19.039Z,32.00
2023-02-19T19:48:21.120Z,32.00
2023-02-19T19:50:25.479Z,32.00
2023-02-19T19:52:27.158Z,32.10
2023-02-19T19:54:29.486Z,32.00
2023-02-19T19:56:31.431Z,31.90
2023-02-19T19:58:34.170Z,31.90
2023-02-19T20:00:35.971Z,31.80
2023-02-19T20:02:37.622Z,31.80
2023-02-19T20:04:39.359Z,31.60
2023-02-19T20:06:41.252Z,31.60
2023-02-19T20:08:43.034Z,31.40
2023-02-19T20:10:48.324Z,31.30
2023-02-19T20:12:50.088Z,31.20
2023-02-19T20:14:53.029Z,31.00
2023-02-19T20:16:59.407Z,31.10
2023-02-19T20:19:01.262Z,30.90
2023-02-19T20:21:03.653Z,31.00
2023-02-19T20:23:07.822Z,30.90
2023-02-19T20:25:11.148Z,30.90
2023-02-19T20:27:12.880Z,30.90
2023-02-19T20:29:14.509Z,30.80
2023-02-19T20:31:21.089Z,30.90
2023-02-19T20:33:22.879Z,31.00
2023-02-19T20:35:28.418Z,31.00
2023-02-19T20:37:30.370Z,31.10
2023-02-19T20:39:34.937Z,31.10
2023-02-19T20:41:38.266Z,30.80
2023-02-19T20:43:47.637Z,30.70
2023-02-19T20:45:49.272Z,30.60
2023-02-19T20:47:53.246Z,30.30
2023-02-19T20:49:55.092Z,30.30
2023-02-19T20:52:02.219Z,30.30
2023-02-19T20:54:06.221Z,30.20
2023-02-19T20:56:08.086Z,30.30
2023-02-19T20:58:17.167Z,30.30
2023-02-19T21:00:22.557Z,30.20
2023-02-19T21:02:29.080Z,30.00
2023-02-19T21:04:31.661Z,30.00
2023-02-19T21:06:33.457Z,29.80
2023-02-19T21:08:37.477Z,29.80
2023-02-19T21:10:39.231Z,29.90
2023-02-19T21:12:43.933Z,29.90
2023-02-19T21:14:46.310Z,29.70
2023-02-19T21:16:48.376Z,29.70
2023-02-19T21:18:51.222Z,29.00
2023-02-19T21:20:53.048Z,28.80
2023-02-19T21:22:54.983Z,28.50
2023-02-19T21:24:56.625Z,28.50
2023-02-19T21:26:58.812Z,28.40
2023-02-19T21:29:02.685Z,28.40
2023-02-19T21:31:04.899Z,28.30
2023-02-19T21:33:06.730Z,28.30
2023-02-19T21:35:08.525Z,28.30
2023-02-19T21:37:10.307Z,28.30
2023-02-19T21:39:14.142Z,28.30
2023-02-19T21:41:15.834Z,28.20
2023-02-19T21:43:19.924Z,28.20
2023-02-19T21:45:21.542Z,28.20
2023-02-19T21:47:23.176Z,28.20
2023-02-19T21:49:24.944Z,28.20
2023-02-19T21:51:35.284Z,28.20
2023-02-19T21:53:40.459Z,28.20
2023-02-19T21:55:56.623Z,28.10
2023-02-19T21:57:59.713Z,28.10
2023-02-19T22:00:01.473Z,28.10
2023-02-19T22:02:03.411Z,28.00
2023-02-19T22:04:09.336Z,28.00
2023-02-19T22:06:11.194Z,28.10
2023-02-19T22:08:15.426Z,28.10
2023-02-19T22:10:19.465Z,28.00
2023-02-19T22:12:21.275Z,28.10
2023-02-19T22:14:22.918Z,28.00
2023-02-19T22:16:27.139Z,27.90
2023-02-19T22:18:29.212Z,27.90
2023-02-19T22:20:31.085Z,27.90
2023-02-19T22:22:32.795Z,27.90
2023-02-19T22:24:37.492Z,27.80
2023-02-19T22:26:39.225Z,28.00
2023-02-19T22:28:40.880Z,27.90
2023-02-19T22:30:43.030Z,28.10
2023-02-19T22:32:46.855Z,28.20
2023-02-19T22:34:48.505Z,28.20
2023-02-19T22:36:50.187Z,28.30
2023-02-19T22:38:55.571Z,28.40
2023-02-19T22:40:57.259Z,28.50
2023-02-19T22:42:59.093Z,28.50
2023-02-19T22:45:00.766Z,28.50
2023-02-19T22:47:02.485Z,28.60
2023-02-19T22:49:06.140Z,28.60
2023-02-19T22:51:16.107Z,28.50
2023-02-19T22:53:17.972Z,28.70
2023-02-19T22:55:19.619Z,28.80
2023-02-19T22:57:21.358Z,28.80
2023-02-19T22:59:23.340Z,28.80
2023-02-19T23:01:25.483Z,28.90
2023-02-19T23:03:27.994Z,28.90
2023-02-19T23:05:29.671Z,28.90
2023-02-19T23:07:31.286Z,28.80
2023-02-19T23:09:35.365Z,28.90
2023-02-19T23:11:39.024Z,28.90
2023-02-19T23:13:43.971Z,29.60
2023-02-19T23:15:47.817Z,29.60
2023-02-19T23:17:50.773Z,29.80
2023-02-19T23:19:52.518Z,29.90
2023-02-19T23:21:54.448Z,30.00
2023-02-19T23:23:56.200Z,30.00
2023-02-19T23:25:57.894Z,30.00
2023-02-19T23:27:59.861Z,30.20
2023-02-19T23:30:01.527Z,30.40
2023-02-19T23:32:03.276Z,30.40
2023-02-19T23:34:07.749Z,30.70
2023-02-19T23:36:13.317Z,30.90
2023-02-19T23:38:15.167Z,30.90
2023-02-19T23:40:16.926Z,31.10
2023-02-19T23:42:18.637Z,31.20
2023-02-19T23:44:22.147Z,31.30
2023-02-19T23:46:25.654Z,31.30
2023-02-19T23:48:29.980Z,31.30
2023-02-19T23:50:31.694Z,31.40
2023-02-19T23:52:33.509Z,31.40
2023-02-19T23:54:37.698Z,31.60
2023-02-19T23:56:39.739Z,31.80
2023-02-19T23:58:41.397Z,31.80
